createdAt,value
2019-04-10T00:00:41.260Z,11.21
2019-04-10T00:03:44.425Z,11.42
2019-04-10T00:06:47.959Z,11.70
2019-04-10T00:09:51.660Z,11.61
2019-04-10T00:12:56.146Z,11.47
2019-04-10T00:15:59.241Z,11.61
2019-04-10T00:19:02.791Z,11.38
2019-04-10T00:22:06.318Z,11.08
2019-04-10T00:25:10.580Z,11.20
2019-04-10T00:28:14.991Z,11.26
2019-04-10T00:31:18.152Z,11.33
2019-04-10T00:34:21.269Z,11.20
2019-04-10T00:37:28.699Z,11.20
2019-04-10T00:40:29.543Z,11.40
2019-04-10T00:43:32.917Z,11.11
2019-04-10T00:46:36.052Z,11.38
2019-04-10T00:49:39.951Z,11.05
2019-04-10T00:52:44.088Z,11.03
2019-04-10T00:55:48.171Z,11.19
2019-04-10T00:58:51.536Z,10.89
2019-04-10T01:01:54.487Z,10.99
2019-04-10T01:04:58.445Z,10.96
2019-04-10T01:08:02.366Z,11.04
2019-04-10T01:11:06.511Z,10.81
2019-04-10T01:14:09.702Z,10.98
2019-04-10T01:17:13.695Z,10.97
2019-04-10T01:20:17.619Z,10.92
2019-04-10T01:23:21.323Z,10.76
2019-04-10T01:26:25.053Z,10.80
2019-04-10T01:29:29.233Z,10.94
2019-04-10T01:32:32.836Z,11.11
2019-04-10T01:35:35.903Z,10.62
2019-04-10T01:38:39.781Z,10.42
2019-04-10T01:41:43.868Z,10.85
2019-04-10T01:44:47.123Z,10.59
2019-04-10T01:47:51.209Z,10.97
2019-04-10T01:50:54.875Z,10.84
2019-04-10T01:53:58.523Z,11.01
2019-04-10T01:57:02.057Z,10.94
2019-04-10T02:00:08.261Z,10.64
2019-04-10T02:03:11.942Z,10.79
2019-04-10T02:06:14.912Z,10.77
2019-04-10T02:09:19.192Z,10.33
2019-04-10T02:12:23.290Z,10.35
2019-04-10T02:15:28.105Z,10.48
2019-04-10T02:18:31.374Z,10.37
2019-04-10T02:21:35.981Z,10.11
2019-04-10T02:24:39.496Z,10.04
2019-04-10T02:27:43.119Z,10.41
2019-04-10T02:30:46.228Z,10.30
2019-04-10T02:33:49.704Z,10.24
2019-04-10T02:36:53.115Z,9.67
2019-04-10T02:40:02.193Z,9.89
2019-04-10T02:43:03.252Z,9.99
2019-04-10T02:46:06.908Z,10.17
2019-04-10T02:49:14.423Z,10.28
2019-04-10T02:52:18.322Z,10.16
2019-04-10T02:55:23.205Z,10.05
2019-04-10T02:58:26.905Z,10.03
2019-04-10T03:01:31.189Z,10.06
2019-04-10T03:04:35.175Z,9.98
2019-04-10T03:07:42.283Z,10.00
2019-04-10T03:10:50.584Z,10.14
2019-04-10T03:13:51.426Z,10.16
2019-04-10T03:16:55.500Z,10.05
2019-04-10T03:19:58.899Z,10.01
2019-04-10T03:23:02.048Z,10.16
2019-04-10T03:26:05.608Z,9.65
2019-04-10T03:29:08.782Z,9.84
2019-04-10T03:32:50.261Z,9.77
2019-04-10T03:35:51.435Z,9.91
2019-04-10T03:39:00.071Z,9.66
2019-04-10T03:41:59.688Z,10.03
2019-04-10T03:45:03.402Z,9.94
2019-04-10T03:48:06.734Z,9.56
2019-04-10T03:51:10.305Z,9.52
2019-04-10T03:54:13.634Z,9.32
2019-04-10T03:57:16.688Z,9.36
2019-04-10T04:00:20.981Z,9.31
2019-04-10T04:03:24.654Z,9.42
2019-04-10T04:06:28.076Z,9.40
2019-04-10T04:09:31.676Z,9.43
2019-04-10T04:12:35.215Z,9.40
2019-04-10T04:15:38.603Z,9.23
2019-04-10T04:18:41.952Z,9.42
2019-04-10T04:21:44.918Z,9.39
2019-04-10T04:24:48.643Z,9.54
2019-04-10T04:27:51.877Z,9.28
2019-04-10T04:30:54.823Z,9.32
2019-04-10T04:33:57.775Z,9.27
2019-04-10T04:37:00.692Z,9.13
2019-04-10T04:40:05.469Z,9.44
2019-04-10T04:43:08.562Z,9.46
2019-04-10T04:46:12.471Z,9.45
2019-04-10T04:49:15.779Z,9.24
2019-04-10T04:52:20.327Z,9.35
2019-04-10T04:55:23.448Z,9.00
2019-04-10T04:58:26.690Z,9.11
2019-04-10T05:01:29.720Z,9.03
2019-04-10T05:04:33.756Z,8.94
2019-04-10T05:07:37.620Z,8.64
2019-04-10T05:10:41.882Z,8.99
2019-04-10T05:13:45.585Z,8.71
2019-04-10T05:16:49.988Z,8.95
2019-04-10T05:19:54.494Z,8.93
2019-04-10T05:22:58.550Z,9.10
2019-04-10T05:26:03.809Z,9.26
2019-04-10T05:29:07.181Z,9.08
2019-04-10T05:32:11.410Z,9.11
2019-04-10T05:35:15.251Z,8.98
2019-04-10T05:38:18.762Z,8.83
2019-04-10T05:41:23.256Z,9.10
2019-04-10T05:44:27.768Z,9.18
2019-04-10T05:47:30.732Z,9.13
2019-04-10T05:50:33.669Z,9.19
2019-04-10T05:53:36.856Z,8.77
2019-04-10T05:56:40.596Z,8.55
2019-04-10T05:59:43.958Z,8.58
2019-04-10T06:02:48.070Z,8.61
2019-04-10T06:05:51.542Z,9.07
2019-04-10T06:08:54.473Z,9.13
2019-04-10T06:12:00.083Z,8.74
2019-04-10T06:15:04.430Z,8.89
2019-04-10T06:18:09.189Z,8.84
2019-04-10T06:21:12.557Z,8.84
2019-04-10T06:24:16.304Z,9.13
2019-04-10T06:27:20.468Z,8.77
2019-04-10T06:30:24.249Z,8.31
2019-04-10T06:33:28.440Z,8.93
2019-04-10T06:36:31.499Z,8.81
2019-04-10T06:39:35.233Z,9.09
2019-04-10T06:42:46.159Z,9.02
2019-04-10T06:45:44.021Z,8.75
2019-04-10T06:48:48.114Z,8.58
2019-04-10T06:51:52.284Z,8.67
2019-04-10T06:54:55.430Z,8.58
2019-04-10T06:57:59.344Z,8.88
2019-04-10T07:01:04.160Z,8.93
2019-04-10T07:04:08.140Z,8.96
2019-04-10T07:07:15.170Z,8.88
2019-04-10T07:10:26.102Z,8.75
2019-04-10T07:13:21.986Z,8.72
2019-04-10T07:16:28.907Z,9.19
2019-04-10T07:19:30.658Z,8.86
2019-04-10T07:22:34.030Z,9.07
2019-04-10T07:25:37.652Z,9.24
2019-04-10T07:28:45.652Z,9.39
2019-04-10T07:31:48.766Z,8.75
2019-04-10T07:34:57.426Z,9.33
2019-04-10T07:37:58.069Z,9.78
2019-04-10T07:41:01.529Z,9.89
2019-04-10T07:44:05.892Z,9.69
2019-04-10T07:47:11.107Z,9.60
2019-04-10T07:50:14.701Z,9.99
2019-04-10T07:53:17.648Z,9.99
2019-04-10T07:56:20.980Z,9.82
2019-04-10T07:59:25.568Z,10.18
2019-04-10T08:03:14.640Z,10.41
2019-04-10T08:06:17.953Z,10.48
2019-04-10T08:09:21.238Z,10.29
2019-04-10T08:12:37.620Z,10.60
2019-04-10T08:15:33.564Z,10.86
2019-04-10T08:18:37.240Z,10.83
2019-04-10T08:21:40.396Z,15.38
2019-04-10T08:24:49.106Z,16.49
2019-04-10T08:27:52.305Z,16.82
2019-04-10T08:30:57.445Z,17.31
2019-04-10T08:34:01.089Z,17.19
2019-04-10T08:37:04.613Z,17.19
2019-04-10T08:40:09.626Z,17.05
2019-04-10T08:43:13.778Z,17.05
2019-04-10T08:46:17.698Z,16.93
2019-04-10T08:49:21.424Z,17.05
2019-04-10T08:52:24.757Z,16.78
2019-04-10T08:55:28.280Z,16.91
2019-04-10T08:58:32.755Z,17.03
2019-04-10T09:01:36.316Z,17.18
2019-04-10T09:04:39.295Z,17.16
2019-04-10T09:07:42.291Z,17.32
2019-04-10T09:10:47.408Z,17.16
2019-04-10T09:13:50.763Z,17.31
2019-04-10T09:16:55.258Z,17.30
2019-04-10T09:19:58.400Z,17.61
2019-04-10T09:23:33.031Z,17.67
2019-04-10T09:26:06.576Z,17.42
2019-04-10T09:29:09.802Z,17.44
2019-04-10T09:32:12.799Z,17.30
2019-04-10T09:35:16.368Z,17.16
2019-04-10T09:38:20.972Z,16.58
2019-04-10T09:41:23.988Z,17.06
2019-04-10T09:44:27.831Z,16.86
2019-04-10T09:47:31.011Z,16.48
2019-04-10T09:50:33.947Z,16.63
2019-04-10T09:53:38.987Z,18.19
2019-04-10T09:56:42.405Z,17.89
2019-04-10T09:59:46.987Z,17.70
2019-04-10T10:02:50.738Z,17.29
2019-04-10T10:05:55.023Z,17.70
2019-04-10T10:08:58.468Z,17.64
2019-04-10T10:12:01.511Z,17.65
2019-04-10T10:15:07.235Z,16.62
2019-04-10T10:18:10.937Z,15.97
2019-04-10T10:21:14.615Z,14.92
2019-04-10T10:24:18.320Z,15.10
2019-04-10T10:27:22.152Z,14.41
2019-04-10T10:30:27.273Z,14.58
2019-04-10T10:33:31.989Z,14.24
2019-04-10T10:36:41.133Z,14.42
2019-04-10T10:39:41.145Z,14.52
2019-04-10T10:42:45.552Z,14.18
2019-04-10T10:45:49.207Z,14.32
2019-04-10T10:48:52.232Z,14.29
2019-04-10T10:51:57.210Z,15.61
2019-04-10T10:55:01.058Z,15.40
2019-04-10T10:58:05.798Z,15.16
2019-04-10T11:01:08.968Z,14.59
2019-04-10T11:04:12.953Z,14.49
2019-04-10T11:07:16.217Z,14.99
2019-04-10T11:10:22.709Z,15.01
2019-04-10T11:13:24.293Z,15.29
2019-04-10T11:16:27.673Z,15.14
2019-04-10T11:19:31.232Z,14.95
2019-04-10T11:22:35.521Z,15.11
2019-04-10T11:25:40.394Z,15.13
2019-04-10T11:28:45.618Z,15.19
2019-04-10T11:31:49.227Z,15.55
2019-04-10T11:34:52.971Z,15.60
2019-04-10T11:37:59.247Z,16.16
2019-04-10T11:41:03.016Z,17.18
2019-04-10T11:44:08.147Z,18.41
2019-04-10T11:47:12.762Z,16.84
2019-04-10T11:50:18.377Z,16.01
2019-04-10T11:53:24.013Z,15.99
2019-04-10T11:56:30.063Z,15.71
2019-04-10T11:59:34.583Z,15.64
2019-04-10T12:02:39.425Z,16.15
2019-04-10T12:05:42.659Z,16.07
2019-04-10T12:09:08.310Z,16.37
2019-04-10T12:11:51.489Z,16.44
2019-04-10T12:14:54.454Z,16.13
2019-04-10T12:17:58.237Z,16.44
2019-04-10T12:21:01.924Z,17.10
2019-04-10T12:24:05.420Z,16.60
2019-04-10T12:27:09.161Z,16.41
2019-04-10T12:30:13.325Z,16.55
2019-04-10T12:33:17.173Z,16.43
2019-04-10T12:36:20.536Z,16.53
2019-04-10T12:39:24.538Z,16.54
2019-04-10T12:42:28.146Z,16.98
2019-04-10T12:45:32.635Z,16.92
2019-04-10T12:48:36.901Z,16.90
2019-04-10T12:51:40.271Z,17.16
2019-04-10T12:54:44.973Z,17.04
2019-04-10T12:57:48.664Z,17.22
2019-04-10T13:00:52.207Z,17.13
2019-04-10T13:03:55.774Z,17.14
2019-04-10T13:06:59.069Z,17.21
2019-04-10T13:10:02.544Z,17.46
2019-04-10T13:13:06.148Z,17.58
2019-04-10T13:16:09.918Z,17.73
2019-04-10T13:19:13.190Z,17.86
2019-04-10T13:22:16.645Z,17.93
2019-04-10T13:25:19.613Z,17.89
2019-04-10T13:28:23.743Z,17.68
2019-04-10T13:31:27.652Z,17.72
2019-04-10T13:34:31.269Z,17.70
2019-04-10T13:37:35.610Z,17.82
2019-04-10T13:40:39.578Z,17.61
2019-04-10T13:43:42.600Z,17.91
2019-04-10T13:46:46.424Z,18.15
2019-04-10T13:49:51.115Z,18.06
2019-04-10T13:52:54.891Z,17.75
2019-04-10T13:55:58.999Z,17.93
2019-04-10T13:59:02.141Z,17.91
2019-04-10T14:02:06.964Z,19.28
2019-04-10T14:05:13.690Z,19.66
2019-04-10T14:08:17.264Z,20.43
2019-04-10T14:11:21.470Z,20.61
2019-04-10T14:14:24.595Z,18.96
2019-04-10T14:17:28.407Z,19.59
2019-04-10T14:20:31.685Z,19.73
2019-04-10T14:23:35.331Z,20.04
2019-04-10T14:26:55.651Z,19.95
2019-04-10T14:29:59.695Z,19.02
2019-04-10T14:33:05.066Z,19.70
2019-04-10T14:36:08.250Z,19.26
2019-04-10T14:39:18.406Z,19.56
2019-04-10T14:42:20.327Z,19.64
2019-04-10T14:45:23.619Z,19.37
2019-04-10T14:48:27.884Z,19.65
2019-04-10T14:51:32.481Z,19.25
2019-04-10T14:54:35.823Z,19.01
2019-04-10T14:57:39.174Z,19.22
2019-04-10T15:00:49.520Z,19.32
2019-04-10T15:03:53.001Z,18.01
2019-04-10T15:06:56.302Z,17.60
2019-04-10T15:10:00.909Z,17.13
2019-04-10T15:13:10.255Z,17.34
2019-04-10T15:16:09.496Z,17.17
2019-04-10T15:19:12.900Z,16.59
2019-04-10T15:22:15.968Z,16.57
2019-04-10T15:25:19.489Z,16.76
2019-04-10T15:28:23.236Z,16.87
2019-04-10T15:31:27.560Z,16.70
2019-04-10T15:34:31.389Z,16.79
2019-04-10T15:37:35.192Z,16.87
2019-04-10T15:40:38.614Z,16.89
2019-04-10T15:43:42.016Z,17.28
2019-04-10T15:46:45.647Z,16.84
2019-04-10T15:49:49.392Z,16.82
2019-04-10T15:52:53.593Z,16.57
2019-04-10T15:55:57.783Z,16.67
2019-04-10T15:59:01.192Z,16.50
2019-04-10T16:02:05.721Z,16.50
2019-04-10T16:05:10.081Z,16.43
2019-04-10T16:08:14.258Z,16.36
2019-04-10T16:11:29.942Z,16.07
2019-04-10T16:14:33.407Z,15.87
2019-04-10T16:17:52.587Z,15.65
2019-04-10T16:20:56.182Z,15.66
2019-04-10T16:24:04.605Z,15.69
2019-04-10T16:27:07.669Z,15.42
2019-04-10T16:30:15.494Z,15.46
2019-04-10T16:33:18.874Z,15.53
2019-04-10T16:36:23.404Z,15.37
2019-04-10T16:39:27.834Z,15.06
2019-04-10T16:42:31.042Z,15.03
2019-04-10T16:45:34.892Z,14.79
2019-04-10T16:48:38.035Z,15.13
2019-04-10T16:51:41.009Z,15.02
2019-04-10T16:54:45.158Z,14.60
2019-04-10T16:57:49.151Z,14.70
2019-04-10T17:00:53.780Z,14.47
2019-04-10T17:03:57.256Z,14.52
2019-04-10T17:07:00.848Z,14.16
2019-04-10T17:10:14.065Z,14.14
2019-04-10T17:13:12.109Z,14.17
2019-04-10T17:16:15.641Z,13.97
2019-04-10T17:19:19.431Z,13.92
2019-04-10T17:22:30.881Z,14.06
2019-04-10T17:25:28.488Z,13.80
2019-04-10T17:28:32.311Z,13.75
2019-04-10T17:31:35.477Z,13.66
2019-04-10T17:34:38.944Z,13.81
2019-04-10T17:37:42.275Z,13.94
2019-04-10T17:40:50.929Z,13.80
2019-04-10T17:43:51.554Z,13.81
2019-04-10T17:46:55.761Z,13.88
2019-04-10T17:50:00.168Z,13.64
2019-04-10T17:53:05.101Z,13.84
2019-04-10T17:56:08.665Z,13.65
2019-04-10T17:59:11.605Z,13.54
2019-04-10T18:02:15.719Z,13.30
2019-04-10T18:05:20.116Z,13.39
2019-04-10T18:08:26.424Z,13.09
2019-04-10T18:11:29.798Z,13.13
2019-04-10T18:14:36.148Z,13.21
2019-04-10T18:17:38.735Z,13.25
2019-04-10T18:20:42.239Z,13.15
2019-04-10T18:23:45.445Z,13.39
2019-04-10T18:26:51.917Z,12.82
2019-04-10T18:29:53.584Z,12.74
2019-04-10T18:32:58.084Z,12.83
2019-04-10T18:36:01.528Z,12.79
2019-04-10T18:39:11.374Z,12.90
2019-04-10T18:42:13.890Z,13.01
2019-04-10T18:45:17.585Z,12.83
2019-04-10T18:48:21.383Z,12.90
2019-04-10T18:51:25.690Z,12.50
2019-04-10T18:54:29.790Z,12.72
2019-04-10T18:57:35.009Z,12.76
2019-04-10T19:00:56.850Z,12.61
2019-04-10T19:04:18.279Z,12.59
2019-04-10T19:07:22.894Z,12.47
2019-04-10T19:10:26.435Z,12.44
2019-04-10T19:13:29.408Z,12.48
2019-04-10T19:16:33.831Z,12.29
2019-04-10T19:19:40.095Z,12.33
2019-04-10T19:22:42.451Z,12.45
2019-04-10T19:25:47.079Z,12.31
2019-04-10T19:28:50.722Z,12.00
2019-04-10T19:31:56.447Z,12.05
2019-04-10T19:34:59.385Z,11.82
2019-04-10T19:38:03.164Z,12.11
2019-04-10T19:41:06.283Z,12.20
2019-04-10T19:44:10.737Z,12.04
2019-04-10T19:47:14.580Z,11.58
2019-04-10T19:50:19.402Z,11.54
2019-04-10T19:53:22.516Z,11.50
2019-04-10T19:56:26.653Z,11.40
2019-04-10T19:59:31.623Z,11.30
2019-04-10T20:02:35.166Z,11.27
2019-04-10T20:05:39.337Z,11.21
2019-04-10T20:08:42.587Z,11.09
2019-04-10T20:11:52.261Z,11.14
2019-04-10T20:14:50.725Z,11.15
2019-04-10T20:17:54.636Z,10.64
2019-04-10T20:20:58.086Z,11.02
2019-04-10T20:24:01.133Z,11.36
2019-04-10T20:27:04.495Z,11.18
2019-04-10T20:30:09.942Z,10.70
2019-04-10T20:33:14.488Z,11.03
2019-04-10T20:36:17.514Z,10.92
2019-04-10T20:39:21.101Z,10.91
2019-04-10T20:42:25.292Z,10.63
2019-04-10T20:45:29.489Z,10.69
2019-04-10T20:48:32.822Z,10.70
2019-04-10T20:51:35.969Z,10.53
2019-04-10T20:54:39.527Z,10.64
2019-04-10T20:57:46.413Z,10.48
2019-04-10T21:00:51.435Z,10.31
2019-04-10T21:03:57.105Z,10.34
2019-04-10T21:07:00.729Z,10.45
2019-04-10T21:10:04.290Z,10.13
2019-04-10T21:13:21.936Z,10.22
2019-04-10T21:16:27.349Z,10.41
2019-04-10T21:19:31.279Z,10.08
2019-04-10T21:22:34.331Z,10.24
2019-04-10T21:25:37.964Z,10.38
2019-04-10T21:28:41.580Z,10.00
2019-04-10T21:31:54.935Z,9.99
2019-04-10T21:34:59.689Z,9.98
2019-04-10T21:38:02.778Z,9.75
2019-04-10T21:41:08.093Z,9.76
2019-04-10T21:44:12.954Z,9.88
2019-04-10T21:47:16.037Z,9.43
2019-04-10T21:50:20.024Z,9.50
2019-04-10T21:53:24.086Z,9.35
2019-04-10T21:56:28.763Z,9.00
2019-04-10T21:59:32.149Z,9.34
2019-04-10T22:02:35.904Z,9.24
2019-04-10T22:05:41.012Z,9.43
2019-04-10T22:08:50.373Z,9.17
2019-04-10T22:11:55.314Z,9.38
2019-04-10T22:14:58.385Z,9.13
2019-04-10T22:18:02.982Z,9.01
2019-04-10T22:21:08.226Z,9.10
2019-04-10T22:24:11.609Z,8.86
2019-04-10T22:27:14.842Z,8.86
2019-04-10T22:30:18.969Z,8.64
2019-04-10T22:33:22.295Z,9.07
2019-04-10T22:36:26.013Z,8.90
2019-04-10T22:39:29.974Z,8.82
2019-04-10T22:42:40.115Z,8.41
2019-04-10T22:45:40.162Z,8.76
2019-04-10T22:48:43.669Z,8.60
2019-04-10T22:51:46.666Z,8.50
2019-04-10T22:54:50.898Z,8.34
2019-04-10T22:57:54.763Z,7.95
2019-04-10T23:00:58.031Z,8.33
2019-04-10T23:04:01.779Z,8.20
2019-04-10T23:07:06.027Z,8.25
2019-04-10T23:10:13.219Z,7.84
2019-04-10T23:13:18.635Z,7.89
2019-04-10T23:16:22.266Z,7.77
2019-04-10T23:19:25.834Z,7.76
2019-04-10T23:22:29.389Z,7.53
2019-04-10T23:25:32.864Z,7.34
2019-04-10T23:28:36.386Z,8.16
2019-04-10T23:31:41.618Z,7.64
2019-04-10T23:34:45.339Z,7.61
2019-04-10T23:37:48.615Z,7.38
2019-04-10T23:40:51.627Z,7.50
2019-04-10T23:43:55.705Z,7.58
2019-04-10T23:46:59.937Z,7.54
2019-04-10T23:50:06.263Z,7.74
2019-04-10T23:53:09.994Z,7.47
2019-04-10T23:56:13.624Z,7.34
2019-04-10T23:59:19.086Z,7.30
